x

Western Caribbean - 195 Nm Wsw Of Negril Jamiaca (42057) Wave Buoy

10:50 - Mon 2nd Mar 2015 All times are UTC.

  • Sig Wave height 4.6ft
  • Swell Direction
  • Peak Period 8s
  • Average Period 6s
  • Wind
    13mph, 16mph gusts
  • Sea Temp 81°f
  • Aire Temp 81°f
  • Sea Pressure 1015.5mb

More Historic Weather Station data

Upgrade to MSW Pro to gain access to the past 30 days of data for over 8000 Wavebouys and Weather Stations around the globe.

Join Pro

Comparision Forecast

View Surf forecast
   
lun 03/02 10:50 4.5ft 8s 6s 13 16 mph 1015.5mb 81f 81f
9:50 5ft 9s 6s 11 13 mph 1015.5mb 81f 80f
8:50 5ft 7s 6s 7 9 mph 1015.6mb 81f 80f
7:50 4.5ft 6s 6s 9
mph
1016.2mb 81f 79f
6:50 5ft 7s 6s 7 18 mph 1017.2mb 82f 79f
5:50 5ft 8s 6s 2 4 mph 1018.1mb 81f 78f
4:50 5.5ft 9s 6s 11 18 mph 1019.2mb 81f 77f
3:50 5.5ft 7s 6s 20 25 mph 1019.6mb 81f 76f
2:50 5.5ft 7s 6s 11 13 mph 1019.2mb 81f 78f
1:50 5.5ft 7s 6s 11 13 mph 1018.4mb 81f 80f
12:50 5.5ft 7s 6s 16 22 mph 1017.8mb 81f 78f
11:50 6ft 6s 6s 18 22 mph 1017.1mb 81f 80f
10:50 5.5ft 7s 6s 16 18 mph 1016.6mb 81f 80f
9:50 6ft 8s 6s 18 20 mph 1016.4mb 81f 80f
8:50 6ft 6s 5s 18 22 mph 1016.3mb 81f 80f
7:50 5.5ft 9s 5s 18 20 mph 1016.5mb 81f 80f
6:50 5ft 9s 5s 18 22 mph 1017.1mb 81f 80f
5:50 6ft 9s 6s 18 22 mph 1018mb 81f 80f
4:50 5.5ft 9s 5s 20 22 mph 1018.5mb 81f 81f
3:50 6ft 7s 5s 20 22 mph 1018.8mb 81f 81f
2:50 6ft 8s 6s 18 20 mph 1018.7mb 81f 81f
1:50 5ft 7s 5s 18 20 mph 1018.2mb 81f 81f
12:50 5ft 8s 5s 18 20 mph 1017.4mb 82f 81f
dom 03/01 11:50 5ft 6s 5s 18 22 mph 1016.7mb 82f 81f
10:50 5ft 9s 5s 16 20 mph 1016.4mb 82f 81f
9:50 5ft 8s 5s 18 20 mph 1016.3mb 82f 81f
8:50 5.5ft 9s 5s 18 20 mph 1016.3mb 82f 81f
7:50 5.5ft 6s 5s 18 20 mph 1016.8mb 82f 81f
6:50 5.5ft 9s 6s 16 20 mph 1017.5mb 82f 81f
5:50 5.5ft 8s 6s 18 22 mph 1018mb 82f 81f
4:50 6ft 9s 5s 20 22 mph 1018.7mb 82f 81f
3:50 6ft 10s 5s 20 25 mph 1019.3mb 82f 81f
2:50 5.5ft 10s 5s 20 25 mph 1019.1mb 81f 81f
1:50 5.5ft 10s 5s 20 25 mph 1018.8mb 81f 81f
12:50 5.5ft 10s 6s 18 22 mph 1018.2mb 81f 81f
11:50 5ft 8s 5s 20 22 mph 1017.5mb 81f 81f
10:50 5ft 8s 5s 20 25 mph 1016.6mb 81f 81f
9:50 4.5ft 9s 5s 18 22 mph 1016.1mb 81f 80f
8:50 4.5ft 8s 5s 18 20 mph 1016.2mb 81f 80f
7:50 4.5ft 9s 5s 18 22 mph 1016.4mb 81f 81f
6:50 4.5ft 8s 5s 16 18 mph 1017mb 81f 81f
5:50 5ft 8s 5s 20 22 mph 1017.6mb 81f 81f
4:50 5ft 5s 5s 18 20 mph 1018.1mb 81f 81f
3:50 5ft 7s 5s 18 20 mph 1018.5mb 81f 81f
2:50 5ft 8s 5s 16 18 mph 1018.3mb 81f 81f
1:50 5ft 8s 5s 18 20 mph 1017.6mb 81f 81f
12:50 5ft 8s 5s 18 20 mph 1016.7mb 81f 81f
sáb 02/28 11:50 5ft 9s 5s 16 20 mph 1016.2mb 82f 81f
10:50 5ft 9s 5s 16 20 mph 1016.1mb 82f 81f
9:50 5ft 9s 5s 16 18 mph 1016mb 82f 81f
8:50 5ft 7s 5s 16 18 mph 1016mb 82f 81f
7:50 5.5ft 8s 5s 16 18 mph 1016.3mb 81f 81f
6:50 6ft 6s 5s 18 22 mph 1016.7mb 81f 81f
5:50 6ft 9s 5s 18 22 mph 1017.6mb 81f 81f
4:50 5ft 9s 5s 20 22 mph 1018.1mb 81f 81f
3:50 5ft 7s 5s 18 22 mph 1018.4mb 81f 81f
2:50 5ft 8s 5s 20 25 mph 1018.3mb 81f 81f
1:50 5ft 6s 5s 20 25 mph 1017.7mb 81f 81f
12:50 5ft 8s 5s 18 20 mph 1017.1mb 81f 81f
11:50 5ft 8s 5s 18 20 mph 1016.3mb 81f 81f
10:50 4.5ft 8s 5s 18 20 mph 1015.5mb 81f 80f
9:50 5ft 8s 5s 18 22 mph 1015.1mb 81f 80f
8:50 4.5ft 6s 5s 18 20 mph 1014.8mb 81f 80f
7:50 4ft 6s 5s 13 18 mph 1015mb 81f 80f
6:50 4.5ft 8s 5s 18 20 mph 1015.2mb 81f 80f
5:50 5ft 8s 5s 18 20 mph 1015.3mb 81f 81f
4:50 4.5ft 8s 5s 13 20 mph 1015.8mb 81f 80f
3:50 4.5ft 7s 5s 18 20 mph 1015.7mb 81f 81f
2:50 4.5ft 7s 5s 18 20 mph 1015.5mb 81f 81f
1:50 5ft 7s 5s 13 18 mph 1015.6mb 81f 81f
12:50 5ft 7s 5s 13 18 mph 1014.9mb 81f 81f
vie 02/27 11:50 5ft 8s 6s 13 18 mph 1014.2mb 81f 81f
10:50 4.5ft 8s 5s 13 16 mph 1013.7mb 81f 81f
9:50 4.5ft 8s 5s 13 16 mph 1013.3mb 81f 81f
8:50 4.5ft 9s 6s 13 16 mph 1013.2mb 81f 81f
7:50 4.5ft 8s 6s 16 18 mph 1013.5mb 81f 81f
6:50 4.5ft 9s 6s 16 20 mph 1014.4mb 81f 81f
5:50 4.5ft 8s 6s 11 13 mph 1015.3mb 81f 81f
4:50 4.5ft 8s 6s 11 13 mph 1016.1mb 81f 81f
3:50 5ft 8s 6s 11
mph
1016.6mb 81f 80f
2:50 5ft 8s 6s 11 13 mph 1016.7mb 81f 79f
1:50 5ft 8s 6s 11 13 mph 1015.9mb 81f 80f
12:50 5ft 8s 6s 13 16 mph 1015.3mb 81f 80f
11:50 5ft 8s 6s 13 16 mph 1014.6mb 81f 80f
10:50 5ft 8s 6s 13 16 mph 1013.5mb 80f 80f
9:50 5ft 8s 6s 13 16 mph 1012.9mb 81f 80f
8:50 5.5ft 8s 6s 13 16 mph 1012.7mb 81f 80f
7:50 5ft 8s 6s 13 16 mph 1012.9mb 81f 80f
6:50 5ft 8s 6s 13 18 mph 1013.2mb 81f 80f
5:50 5ft 8s 5s 16 20 mph 1013.7mb 81f 80f
4:50 5.5ft 8s 6s 18 20 mph 1013.9mb 81f 80f
3:50 5ft 8s 5s 16 20 mph 1014mb 81f 81f
2:50 5ft 7s 5s 16 20 mph 1013.9mb 81f 81f
1:50 5ft 8s 6s 16 18 mph 1013.6mb 81f 81f
12:50 5ft 7s 6s 16 20 mph 1012.7mb 81f 81f
jue 02/26 11:50 5ft 8s 5s 16 18 mph 1012.1mb 81f 81f